Time;durP1;ratioP1;P1;durP2;ratioP2;P2;SDS_P1;SDS_P2;PMS_P1;PMS_P2;Temp;Humidity;BMP_temperature;BMP_pressure;BME280_temperature;BME280_humidity;BME280_pressure;Samples;Min_cycle;Max_cycle;Signal;HPM_P1;HPM_P2
2023/08/07 00:01:14;;;;;;;4.65;1.85;;;10.10;99.90;;;;;;4901478;29;20059;-86
2023/08/07 00:04:01;;;;;;;3.63;2.10;;;10.10;99.90;;;;;;4893717;29;20052;-91
2023/08/07 00:06:49;;;;;;;4.55;2.13;;;10.00;99.90;;;;;;4899841;29;20053;-91
2023/08/07 00:09:36;;;;;;;6.45;2.65;;;10.00;99.90;;;;;;4892062;29;20391;-89
2023/08/07 00:12:24;;;;;;;6.18;2.20;;;10.00;99.90;;;;;;4884299;29;20575;-89
2023/08/07 00:15:12;;;;;;;7.20;2.10;;;10.00;99.90;;;;;;4895621;29;20130;-87
2023/08/07 00:18:00;;;;;;;5.50;2.78;;;10.00;99.90;;;;;;4891851;29;20421;-88
2023/08/07 00:20:50;;;;;;;4.57;2.10;;;10.10;99.90;;;;;;4885393;29;20059;-90
2023/08/07 00:23:39;;;;;;;3.92;2.40;;;10.00;99.90;;;;;;4893655;29;20100;-89
2023/08/07 00:26:27;;;;;;;7.63;2.33;;;10.00;99.90;;;;;;4898638;29;20094;-86
2023/08/07 00:29:14;;;;;;;6.40;2.53;;;10.00;99.90;;;;;;4893557;29;20100;-89
2023/08/07 00:32:04;;;;;;;6.07;2.53;;;10.00;99.90;;;;;;4917194;29;20100;-83
2023/08/07 00:34:53;;;;;;;5.88;2.00;;;10.00;99.90;;;;;;4904377;29;20065;-89
2023/08/07 00:37:41;;;;;;;6.95;2.20;;;10.00;99.90;;;;;;4912893;29;20045;-91
2023/08/07 00:40:28;;;;;;;6.68;2.30;;;10.00;99.90;;;;;;4912621;29;20116;-90
2023/08/07 00:43:15;;;;;;;10.18;2.60;;;10.00;99.90;;;;;;4913373;29;20048;-89
2023/08/07 00:46:03;;;;;;;4.03;2.22;;;10.00;99.90;;;;;;4906673;29;20059;-90
2023/08/07 00:48:52;;;;;;;5.28;2.25;;;10.00;99.90;;;;;;4889579;29;20105;-89
2023/08/07 00:51:40;;;;;;;3.33;2.15;;;10.10;99.90;;;;;;4905826;29;20108;-86
2023/08/07 00:54:34;;;;;;;4.28;2.08;;;10.10;99.90;;;;;;4914178;29;20089;-87
2023/08/07 00:57:24;;;;;;;3.80;2.08;;;10.10;99.90;;;;;;4886496;29;20049;-89
2023/08/07 01:00:13;;;;;;;4.00;2.10;;;10.10;99.90;;;;;;4888464;29;20053;-89
2023/08/07 01:03:02;;;;;;;4.28;2.38;;;10.10;92.90;;;;;;4910231;29;20132;-84
2023/08/07 01:05:50;;;;;;;5.47;2.20;;;10.10;20.10;;;;;;4917467;29;20041;-91
2023/08/07 01:08:38;;;;;;;5.43;2.70;;;10.10;1.00;;;;;;4895459;29;20040;-88
2023/08/07 01:12:07;;;;;;;3.97;1.90;;;10.10;1.00;;;;;;4916819;29;20055;-89
2023/08/07 01:15:25;;;;;;;6.15;2.20;;;10.00;1.00;;;;;;4884245;29;20152;-89
2023/08/07 01:18:14;;;;;;;3.88;2.15;;;10.00;1.00;;;;;;4879146;29;20057;-88
2023/08/07 01:21:03;;;;;;;6.57;2.40;;;9.90;1.00;;;;;;4903659;29;20045;-89
2023/08/07 01:23:50;;;;;;;3.08;1.98;;;9.90;17.40;;;;;;4890814;29;20099;-92
2023/08/07 01:26:38;;;;;;;5.88;2.15;;;9.90;24.40;;;;;;4899788;29;20071;-90
2023/08/07 01:29:36;;;;;;;5.72;2.20;;;9.90;76.90;;;;;;4900549;29;20120;-90
2023/08/07 01:33:01;;;;;;;5.25;2.10;;;9.90;38.20;;;;;;4886024;29;20096;-91
2023/08/07 01:35:55;;;;;;;4.72;2.17;;;9.80;50.90;;;;;;4893887;29;20056;-90
2023/08/07 01:38:44;;;;;;;8.30;2.10;;;9.80;99.90;;;;;;4908678;29;20108;-88
2023/08/07 01:41:35;;;;;;;3.80;2.25;;;9.80;99.90;;;;;;4890891;29;20041;-92
2023/08/07 01:44:23;;;;;;;7.10;2.20;;;9.80;99.90;;;;;;4903012;29;20044;-89
2023/08/07 01:47:10;;;;;;;6.88;2.10;;;9.90;27.50;;;;;;4900212;29;20375;-90
2023/08/07 01:49:57;;;;;;;5.53;2.88;;;10.00;1.00;;;;;;4891434;29;20049;-90
2023/08/07 01:52:47;;;;;;;7.55;3.00;;;10.00;1.00;;;;;;4889180;29;20067;-91
2023/08/07 01:55:35;;;;;;;15.15;6.78;;;9.90;99.90;;;;;;4893075;29;20042;-90
2023/08/07 01:58:22;;;;;;;11.05;4.45;;;9.90;99.90;;;;;;4891415;29;20108;-88
2023/08/07 02:01:09;;;;;;;8.23;2.70;;;9.90;99.90;;;;;;4903770;29;20080;-89
2023/08/07 02:03:56;;;;;;;5.40;2.30;;;9.90;99.90;;;;;;4908150;29;20372;-91
2023/08/07 02:06:44;;;;;;;4.20;2.30;;;9.90;99.90;;;;;;4895322;29;20040;-89
2023/08/07 02:09:31;;;;;;;5.65;2.30;;;10.00;99.90;;;;;;4902443;29;20104;-89
2023/08/07 02:12:18;;;;;;;6.35;2.28;;;10.10;99.90;;;;;;4891424;29;20048;-90
2023/08/07 02:15:06;;;;;;;2.60;1.90;;;10.10;52.60;;;;;;4902700;29;20044;-90
2023/08/07 02:17:53;;;;;;;6.05;2.00;;;10.20;1.00;;;;;;4910338;29;20107;-84
2023/08/07 02:20:41;;;;;;;3.60;2.08;;;10.20;99.90;;;;;;4904063;29;20060;-90
2023/08/07 02:23:30;;;;;;;4.78;1.90;;;10.20;99.90;;;;;;4893562;29;20159;-90
2023/08/07 02:26:17;;;;;;;3.78;2.35;;;10.20;99.90;;;;;;4882808;29;20052;-88
2023/08/07 02:29:08;;;;;;;5.82;2.30;;;10.20;1.00;;;;;;4883675;29;20053;-92
2023/08/07 02:31:56;;;;;;;8.10;2.53;;;10.20;99.90;;;;;;4911090;29;20048;-88
2023/08/07 02:34:44;;;;;;;8.95;2.20;;;10.30;99.90;;;;;;4913558;29;20108;-88
2023/08/07 02:37:32;;;;;;;6.07;2.28;;;10.30;99.90;;;;;;4911038;29;20077;-93
2023/08/07 02:40:19;;;;;;;6.88;2.33;;;10.30;99.90;;;;;;4900306;29;20062;-89
2023/08/07 02:43:07;;;;;;;4.13;2.17;;;10.30;1.00;;;;;;4910014;29;20056;-89
2023/08/07 02:45:56;;;;;;;4.15;2.13;;;10.30;99.90;;;;;;4899231;29;20051;-91
2023/08/07 02:48:45;;;;;;;8.98;2.40;;;10.30;99.90;;;;;;4912028;29;20047;-85
2023/08/07 02:51:35;;;;;;;8.63;2.28;;;10.30;1.00;;;;;;4908820;29;20049;-86
2023/08/07 02:54:29;;;;;;;4.55;2.13;;;10.40;99.90;;;;;;4907908;29;20040;-85
2023/08/07 02:57:16;;;;;;;5.87;2.40;;;10.40;1.00;;;;;;4899853;29;20055;-89
2023/08/07 03:00:06;;;;;;;7.13;2.25;;;10.40;1.00;;;;;;4908108;29;20055;-88
2023/08/07 03:02:53;;;;;;;7.93;2.28;;;10.30;99.90;;;;;;4911656;29;20080;-90
2023/08/07 03:05:54;;;;;;;8.07;2.38;;;10.30;99.90;;;;;;4911819;29;20044;-89
2023/08/07 03:08:42;;;;;;;7.47;2.42;;;10.30;99.90;;;;;;4915966;29;20051;-89
2023/08/07 03:11:32;;;;;;;5.85;2.30;;;10.20;99.90;;;;;;4912803;29;20052;-91
2023/08/07 03:14:19;;;;;;;5.13;2.00;;;10.20;1.00;;;;;;4911148;29;20061;-86
2023/08/07 03:17:06;;;;;;;5.72;2.55;;;10.20;1.00;;;;;;4917437;29;20543;-90
2023/08/07 03:19:54;;;;;;;7.65;2.42;;;10.10;1.00;;;;;;4902485;29;20052;-86
2023/08/07 03:22:41;;;;;;;9.05;2.28;;;10.10;1.00;;;;;;4902676;29;20044;-91
2023/08/07 03:25:31;;;;;;;5.55;2.65;;;10.10;31.30;;;;;;4904931;29;20479;-91
2023/08/07 03:28:23;;;;;;;3.22;2.10;;;10.10;1.00;;;;;;4888578;29;20524;-86
2023/08/07 03:31:13;;;;;;;5.07;2.40;;;10.10;1.00;;;;;;4897016;29;20050;-89
2023/08/07 03:34:00;;;;;;;11.13;2.58;;;10.10;1.00;;;;;;4911263;29;20052;-89
2023/08/07 03:36:48;;;;;;;6.43;2.40;;;10.00;1.00;;;;;;4898715;29;20059;-89
2023/08/07 03:39:35;;;;;;;6.22;2.65;;;10.00;1.00;;;;;;4910414;29;20048;-90
2023/08/07 03:42:22;;;;;;;9.82;2.60;;;10.00;1.00;;;;;;4903050;29;20052;-91
2023/08/07 03:45:10;;;;;;;6.25;2.17;;;9.90;1.00;;;;;;4913622;29;20076;-87
2023/08/07 03:47:57;;;;;;;7.32;2.00;;;10.00;61.20;;;;;;4900587;29;20100;-89
2023/08/07 03:50:44;;;;;;;8.75;2.30;;;10.00;44.20;;;;;;4899955;29;20044;-88
2023/08/07 03:53:33;;;;;;;8.30;2.42;;;9.90;95.00;;;;;;4897518;29;20052;-90
2023/08/07 03:56:20;;;;;;;5.15;2.47;;;9.90;99.90;;;;;;4891134;29;20060;-88
2023/08/07 03:59:07;;;;;;;7.93;2.63;;;9.90;68.60;;;;;;4883087;29;20048;-90
2023/08/07 04:01:57;;;;;;;10.75;2.63;;;9.80;99.90;;;;;;4891941;29;20103;-88
2023/08/07 04:04:45;;;;;;;7.03;2.85;;;9.70;99.90;;;;;;4892697;29;20044;-88
2023/08/07 04:07:34;;;;;;;8.23;3.88;;;9.60;1.00;;;;;;4908298;29;20076;-88
2023/08/07 04:10:21;;;;;;;7.00;2.42;;;9.60;1.00;;;;;;4894910;29;20061;-89
2023/08/07 04:13:09;;;;;;;5.05;2.47;;;9.60;76.90;;;;;;4898908;29;20049;-90
2023/08/07 04:15:57;;;;;;;6.78;2.47;;;9.60;99.90;;;;;;4915643;29;20044;-91
2023/08/07 04:18:44;;;;;;;12.13;3.15;;;9.60;99.90;;;;;;4896241;29;20057;-88
2023/08/07 04:21:34;;;;;;;6.10;2.45;;;9.60;99.90;;;;;;4910782;29;20055;-90
2023/08/07 04:24:23;;;;;;;6.53;2.65;;;9.60;99.90;;;;;;4889137;29;20076;-89
2023/08/07 04:27:11;;;;;;;7.40;2.70;;;9.60;99.90;;;;;;4898970;29;20442;-85
2023/08/07 04:29:59;;;;;;;5.57;2.42;;;9.60;99.90;;;;;;4884183;29;20056;-87
2023/08/07 04:32:49;;;;;;;9.02;2.50;;;9.70;99.90;;;;;;4881344;29;20052;-87
2023/08/07 04:35:36;;;;;;;6.57;2.88;;;9.60;99.90;;;;;;4901631;29;20155;-86
2023/08/07 04:38:26;;;;;;;9.60;2.78;;;9.60;99.90;;;;;;4898921;29;20060;-85
2023/08/07 04:41:13;;;;;;;9.52;3.05;;;9.60;99.90;;;;;;4885305;29;20377;-84
2023/08/07 04:44:01;;;;;;;8.35;2.72;;;9.60;99.90;;;;;;4878942;29;20485;-86
2023/08/07 04:46:52;;;;;;;4.90;2.55;;;9.60;99.90;;;;;;4898677;29;20176;-86
2023/08/07 04:49:39;;;;;;;4.85;2.50;;;9.60;99.90;;;;;;4895124;29;20059;-87
2023/08/07 04:52:28;;;;;;;7.13;2.55;;;9.60;99.90;;;;;;4887256;29;20045;-85
2023/08/07 04:55:17;;;;;;;5.90;2.42;;;9.60;99.90;;;;;;4896326;29;20192;-82
2023/08/07 05:00:53;;;;;;;7.70;2.35;;;9.80;99.90;;;;;;5637434;23;20059;-79
2023/08/07 05:03:40;;;;;;;8.02;2.72;;;9.80;99.90;;;;;;4937191;29;20134;-81
2023/08/07 05:06:28;;;;;;;8.25;2.60;;;9.70;99.90;;;;;;4935590;29;20040;-81
2023/08/07 05:09:16;;;;;;;7.82;2.70;;;9.70;99.90;;;;;;4943642;29;20086;-80
2023/08/07 05:12:07;;;;;;;4.00;2.20;;;9.70;99.90;;;;;;4939682;29;20438;-80
2023/08/07 05:14:54;;;;;;;7.75;2.40;;;9.70;99.90;;;;;;4947306;28;20062;-86
2023/08/07 05:17:42;;;;;;;3.30;2.25;;;9.70;99.90;;;;;;4944037;29;20318;-86
2023/08/07 05:20:32;;;;;;;5.07;2.58;;;9.70;99.90;;;;;;4950006;28;20052;-86
2023/08/07 05:23:19;;;;;;;5.25;2.40;;;9.80;99.90;;;;;;4959856;29;20054;-85
2023/08/07 05:26:09;;;;;;;6.68;2.58;;;9.80;99.90;;;;;;4941546;29;20111;-85
2023/08/07 05:28:57;;;;;;;9.63;2.60;;;9.90;99.90;;;;;;4948820;29;20047;-86
2023/08/07 05:31:45;;;;;;;6.25;2.22;;;10.00;99.90;;;;;;4950813;28;20057;-86
2023/08/07 05:34:32;;;;;;;6.63;2.53;;;10.20;1.00;;;;;;4955263;29;20059;-86
2023/08/07 05:37:19;;;;;;;5.65;2.30;;;10.30;99.90;;;;;;4940890;29;20055;-85
2023/08/07 05:40:11;;;;;;;6.38;2.20;;;10.50;1.00;;;;;;4947235;29;20053;-85
2023/08/07 05:42:59;;;;;;;7.47;2.30;;;10.60;99.90;;;;;;4952798;29;20040;-85
2023/08/07 05:45:46;;;;;;;5.82;2.80;;;10.70;1.00;;;;;;4955179;28;20370;-85
2023/08/07 05:48:36;;;;;;;5.07;2.45;;;10.80;1.00;;;;;;4943968;29;20039;-90
2023/08/07 05:51:23;;;;;;;6.43;2.83;;;10.90;99.90;;;;;;4937119;29;20050;-84
2023/08/07 05:54:13;;;;;;;6.93;2.75;;;11.10;19.90;;;;;;4955767;28;20058;-85
2023/08/07 05:57:00;;;;;;;5.00;2.00;;;11.20;1.00;;;;;;4936445;29;20066;-88
2023/08/07 05:59:54;;;;;;;10.05;2.40;;;11.30;99.90;;;;;;4952702;28;20107;-87
2023/08/07 06:02:41;;;;;;;5.47;2.53;;;11.30;99.90;;;;;;4952202;28;20074;-85
2023/08/07 06:05:29;;;;;;;5.38;2.20;;;11.30;99.90;;;;;;4952311;29;20138;-86
2023/08/07 06:08:17;;;;;;;3.42;2.03;;;11.40;25.20;;;;;;4952961;28;20047;-87
2023/08/07 06:11:05;;;;;;;9.43;2.10;;;11.50;19.70;;;;;;4952494;28;20058;-87
2023/08/07 06:13:52;;;;;;;5.93;2.30;;;11.50;1.00;;;;;;4938566;29;20051;-85
2023/08/07 06:16:39;;;;;;;7.55;2.08;;;11.60;99.90;;;;;;4948516;28;20051;-85
2023/08/07 06:19:30;;;;;;;7.35;2.65;;;11.60;99.90;;;;;;4939502;28;20062;-86
2023/08/07 06:22:19;;;;;;;5.55;2.03;;;11.70;99.90;;;;;;4936044;28;20046;-86
2023/08/07 06:25:08;;;;;;;5.00;2.10;;;11.60;99.90;;;;;;4951809;28;20039;-85
2023/08/07 06:27:55;;;;;;;8.38;2.33;;;11.60;99.90;;;;;;4951017;28;20145;-87
2023/08/07 06:31:03;;;;;;;6.40;2.30;;;11.60;99.90;;;;;;4937389;28;20047;-90
2023/08/07 06:33:52;;;;;;;5.47;2.20;;;11.60;99.90;;;;;;4938601;28;20057;-90
2023/08/07 06:37:01;;;;;;;4.90;2.17;;;11.60;99.90;;;;;;4942769;29;20094;-89
2023/08/07 06:40:37;;;;;;;5.55;2.15;;;11.70;99.90;;;;;;4944289;29;20498;-91
2023/08/07 06:43:39;;;;;;;4.15;2.15;;;11.80;99.90;;;;;;4955150;28;20043;-90
2023/08/07 06:46:49;;;;;;;4.30;2.25;;;11.90;99.90;;;;;;4955029;28;20462;-90
2023/08/07 06:49:36;;;;;;;6.72;2.70;;;11.90;99.90;;;;;;4952935;28;20387;-91
2023/08/07 06:52:55;;;;;;;;;;;;;;;;;;;;;
2023/08/07 06:56:14;;;;;;;5.88;2.25;;;12.00;99.90;;;;;;4894889;29;20045;-94
2023/08/07 06:59:26;;;;;;;7.13;2.25;;;12.20;1.00;;;;;;4879551;29;20116;-88
2023/08/07 07:03:01;;;;;;;5.03;2.10;;;12.40;1.00;;;;;;4891650;29;20063;-94
2023/08/07 07:05:59;;;;;;;4.50;2.20;;;12.40;99.90;;;;;;4893296;29;20056;-92
2023/08/07 07:09:22;;;;;;;5.05;1.73;;;12.40;99.90;;;;;;4868281;29;20037;-92
2023/08/07 07:13:10;;;;;;;4.35;2.10;;;12.40;99.90;;;;;;4894404;29;20060;-92
2023/08/07 07:16:28;;;;;;;4.13;1.80;;;12.50;99.90;;;;;;4900100;29;20115;-91
2023/08/07 07:19:30;;;;;;;4.05;2.10;;;12.70;99.90;;;;;;4895927;29;20052;-89
2023/08/07 07:22:23;;;;;;;4.20;1.88;;;13.10;1.00;;;;;;4893267;29;20060;-91
2023/08/07 07:25:37;;;;;;;2.42;1.60;;;13.60;1.00;;;;;;4917581;29;20416;-90
2023/08/07 07:28:51;;;;;;;5.05;2.00;;;13.70;99.90;;;;;;4938611;29;20047;-89
2023/08/07 07:36:01;;;;;;;3.75;1.65;;;14.60;99.90;;;;;;4873185;29;20104;-90
2023/08/07 07:39:34;;;;;;;2.92;1.40;;;14.90;7.00;;;;;;4827752;29;20120;-89
2023/08/07 07:42:57;;;;;;;5.50;1.52;;;15.40;1.00;;;;;;4873644;28;20048;-90
2023/08/07 07:46:23;;;;;;;;;;;;;;;;;;;;;
2023/08/07 07:54:05;;;;;;;;;;;;;;;;;;;;;
2023/08/07 07:57:26;;;;;;;3.35;1.35;;;15.90;99.90;;;;;;4803635;29;20514;-89
2023/08/07 08:00:30;;;;;;;3.20;1.48;;;15.90;99.90;;;;;;4802001;29;20075;-90
2023/08/07 08:03:46;;;;;;;2.60;1.73;;;15.50;99.90;;;;;;4790913;29;21694;-91
2023/08/07 08:11:27;;;;;;;2.25;1.15;;;14.90;99.90;;;;;;4776081;29;20073;-93
2023/08/07 08:15:07;;;;;;;;;;;;;;;;;;;;;
2023/08/07 08:39:14;;;;;;;;;;;;;;;;;;;;;
2023/08/07 08:46:05;;;;;;;3.50;1.33;;;16.00;99.90;;;;;;4783178;29;20059;-91
2023/08/07 08:58:27;;;;;;;2.40;1.17;;;16.00;99.90;;;;;;4704187;30;20042;-90
2023/08/07 09:06:00;;;;;;;;;;;;;;;;;;;;;
2023/08/07 09:41:11;;;;;;;;;;;;;;;;;;;;;
2023/08/07 09:45:04;;;;;;;;;;;;;;;;;;;;;
2023/08/07 09:56:43;;;;;;;2.83;1.30;;;17.70;99.90;;;;;;5888432;24;20123;-91
2023/08/07 10:08:36;;;;;;;;;;;;;;;;;;;;;
2023/08/07 10:16:37;;;;;;;;;;;;;;;;;;;;;
2023/08/07 10:45:29;;;;;;;3.22;1.20;;;20.40;99.90;;;;;;6077918;23;20078;-90
2023/08/07 11:26:08;;;;;;;;;;;;;;;;;;;;;
2023/08/07 11:34:03;;;;;;;4.28;1.38;;;18.00;99.90;;;;;;5066609;28;20044;-90
2023/08/07 11:37:47;;;;;;;2.28;1.40;;;18.00;99.90;;;;;;5070476;28;20056;-89
2023/08/07 11:41:55;;;;;;;;;;;;;;;;;;;;;
2023/08/07 11:45:43;;;;;;;4.30;1.20;;;17.30;99.90;;;;;;4969791;28;20125;-88
2023/08/07 12:36:08;;;;;;;;;;;;;;;;;;;;;
2023/08/07 12:39:46;;;;;;;;;;;;;;;;;;;;;
2023/08/07 12:44:05;;;;;;;;;;;;;;;;;;;;;
2023/08/07 12:48:10;;;;;;;;;;;;;;;;;;;;;
2023/08/07 12:51:51;;;;;;;;;;;;;;;;;;;;;
2023/08/07 12:55:34;;;;;;;;;;;;;;;;;;;;;
2023/08/07 13:12:52;;;;;;;3.10;1.67;;;14.80;99.90;;;;;;5508667;22;15102659;-85
2023/08/07 13:19:12;;;;;;;2.38;1.48;;;16.70;99.90;;;;;;6164564;22;20039;-88
2023/08/07 13:22:45;;;;;;;;;;;;;;;;;;;;;
2023/08/07 13:26:32;;;;;;;;;;;;;;;;;;;;;
2023/08/07 13:29:44;;;;;;;2.67;1.48;;;18.10;99.90;;;;;;6014959;23;20362;-88
2023/08/07 13:32:38;;;;;;;3.03;1.75;;;17.40;99.90;;;;;;5996384;23;20043;-88
2023/08/07 13:35:28;;;;;;;2.35;1.50;;;16.90;99.90;;;;;;5998179;23;20031;-88
2023/08/07 13:38:18;;;;;;;6.30;1.70;;;16.50;99.90;;;;;;5997848;23;20063;-88
2023/08/07 13:41:29;;;;;;;2.08;1.65;;;16.30;99.90;;;;;;5992373;23;20039;-90
2023/08/07 13:44:24;;;;;;;3.97;1.73;;;16.60;99.90;;;;;;6008427;23;20030;-88
2023/08/07 13:47:12;;;;;;;2.22;1.40;;;17.10;99.90;;;;;;5992386;23;20034;-90
2023/08/07 13:50:20;;;;;;;2.17;1.30;;;18.30;99.90;;;;;;6009025;23;20032;-90
2023/08/07 13:53:23;;;;;;;1.73;1.20;;;19.70;99.90;;;;;;5990930;23;20032;-89
2023/08/07 13:56:21;;;;;;;2.65;1.50;;;21.90;99.90;;;;;;5988836;23;20339;-88
2023/08/07 13:59:28;;;;;;;1.92;1.25;;;21.80;89.40;;;;;;6010951;23;20175;-90
2023/08/07 14:02:16;;;;;;;5.00;1.50;;;20.70;91.90;;;;;;6031273;23;20085;-87
2023/08/07 14:05:04;;;;;;;2.08;1.50;;;19.70;92.10;;;;;;6157239;23;20397;-90
2023/08/07 14:08:10;;;;;;;3.42;1.60;;;19.80;85.40;;;;;;6137442;23;20401;-88
2023/08/07 14:11:06;;;;;;;3.58;1.60;;;19.90;77.50;;;;;;6136302;23;20034;-88
2023/08/07 14:13:54;;;;;;;1.83;1.50;;;19.80;73.90;;;;;;6129666;23;20084;-88
2023/08/07 14:16:42;;;;;;;1.67;1.48;;;19.50;71.00;;;;;;6130180;23;20025;-88
2023/08/07 14:19:38;;;;;;;3.03;1.45;;;19.10;82.20;;;;;;6131788;23;20022;-88
2023/08/07 14:22:31;;;;;;;3.55;1.40;;;18.70;80.30;;;;;;6131261;23;20025;-89
2023/08/07 14:25:28;;;;;;;3.05;1.58;;;19.00;82.50;;;;;;6135067;23;20026;-92
2023/08/07 14:32:18;;;;;;;3.38;1.30;;;19.20;79.10;;;;;;6154332;23;20005;-87
2023/08/07 14:35:06;;;;;;;1.95;1.17;;;18.70;79.80;;;;;;6149371;23;20037;-89
2023/08/07 14:37:54;;;;;;;1.83;1.25;;;18.40;72.80;;;;;;6148523;23;20026;-89
2023/08/07 14:40:48;;;;;;;3.45;1.40;;;18.30;85.40;;;;;;6129357;23;20026;-88
2023/08/07 14:43:39;;;;;;;2.92;1.63;;;18.10;72.90;;;;;;6151057;23;20045;-88
2023/08/07 14:46:40;;;;;;;4.68;1.83;;;17.80;74.80;;;;;;6131619;23;20121;-89
2023/08/07 14:49:28;;;;;;;3.08;1.63;;;17.10;79.00;;;;;;6132728;23;20053;-89
2023/08/07 14:52:19;;;;;;;5.60;1.73;;;16.90;87.60;;;;;;6133201;23;20025;-88
2023/08/07 14:55:11;;;;;;;1.80;1.45;;;16.90;91.60;;;;;;6151127;23;20029;-89
2023/08/07 14:58:01;;;;;;;3.80;1.60;;;16.90;92.50;;;;;;6151048;23;20030;-87
2023/08/07 15:00:54;;;;;;;6.97;1.90;;;16.80;97.50;;;;;;6129895;23;20045;-91
2023/08/07 15:03:42;;;;;;;3.20;1.90;;;16.70;96.00;;;;;;6129716;23;20293;-89
2023/08/07 15:06:30;;;;;;;4.28;1.65;;;16.60;93.80;;;;;;6128172;23;20041;-88
2023/08/07 15:09:20;;;;;;;2.40;1.35;;;16.60;97.10;;;;;;6129514;23;20333;-91
2023/08/07 15:12:11;;;;;;;4.13;1.70;;;16.70;95.70;;;;;;6127992;23;20033;-91
2023/08/07 15:14:59;;;;;;;3.67;1.92;;;16.80;97.50;;;;;;6128720;23;20377;-90
2023/08/07 15:17:53;;;;;;;5.07;1.53;;;16.80;92.70;;;;;;6148279;23;20049;-91
2023/08/07 15:20:41;;;;;;;2.13;1.90;;;16.90;95.40;;;;;;6154078;23;20057;-89
2023/08/07 15:23:28;;;;;;;2.55;1.27;;;17.20;95.90;;;;;;6154615;23;20121;-89
2023/08/07 15:26:15;;;;;;;1.83;1.52;;;17.60;94.60;;;;;;6134692;23;20035;-86
2023/08/07 15:29:04;;;;;;;2.38;1.70;;;18.20;93.00;;;;;;6161208;23;20025;-88
2023/08/07 15:31:51;;;;;;;2.83;1.70;;;18.30;93.50;;;;;;6165787;23;20037;-87
2023/08/07 15:34:49;;;;;;;2.45;1.70;;;18.10;91.00;;;;;;6169154;23;20014;-85
2023/08/07 15:40:20;;;;;;;2.55;1.70;;;20.10;82.70;;;;;;6161772;23;20312;-89
2023/08/07 15:43:09;;;;;;;2.15;1.35;;;20.40;75.20;;;;;;6140440;23;20046;-88
2023/08/07 15:45:57;;;;;;;1.98;1.48;;;19.70;62.70;;;;;;6131475;23;20151;-88
2023/08/07 15:48:45;;;;;;;5.03;1.77;;;18.70;56.90;;;;;;6158898;23;20039;-88
2023/08/07 15:51:33;;;;;;;5.68;1.63;;;18.00;64.60;;;;;;6167359;23;20025;-87
2023/08/07 15:54:21;;;;;;;2.35;1.80;;;17.60;67.00;;;;;;6151344;23;20030;-90
2023/08/07 15:57:45;;;;;;;3.03;1.55;;;17.50;71.20;;;;;;6170610;23;20082;-92
2023/08/07 16:00:35;;;;;;;4.28;1.65;;;17.40;71.80;;;;;;6136544;23;20029;-91
2023/08/07 16:03:23;;;;;;;2.63;1.63;;;17.40;72.60;;;;;;6159488;23;20443;-89
2023/08/07 16:06:10;;;;;;;2.10;1.63;;;17.50;75.50;;;;;;6134060;23;20026;-92
2023/08/07 16:16:54;;;;;;;3.35;1.60;;;17.70;72.20;;;;;;6153023;23;20021;-89
2023/08/07 16:19:42;;;;;;;5.22;1.92;;;17.60;70.00;;;;;;6152113;23;20070;-88
2023/08/07 16:22:51;;;;;;;4.05;1.60;;;17.60;67.20;;;;;;6043925;23;20040;-88
2023/08/07 16:25:38;;;;;;;5.90;1.50;;;17.80;69.80;;;;;;6128289;23;20435;-91
2023/08/07 16:28:26;;;;;;;3.22;1.48;;;18.10;69.10;;;;;;6129562;23;20025;-92
2023/08/07 16:31:27;;;;;;;2.40;1.50;;;19.00;63.90;;;;;;6129170;23;20113;-93
2023/08/07 16:34:14;;;;;;;3.97;1.83;;;19.00;59.20;;;;;;6128773;23;20384;-86
2023/08/07 16:37:07;;;;;;;2.30;1.40;;;18.80;58.10;;;;;;6129304;23;20348;-91
2023/08/07 16:40:15;;;;;;;6.60;1.73;;;18.50;58.50;;;;;;6133633;23;20052;-91
2023/08/07 16:44:23;;;;;;;;;;;;;;;;;;;;;
2023/08/07 16:47:51;;;;;;;3.30;1.65;;;17.50;61.20;;;;;;6097735;23;20025;-89
2023/08/07 16:51:05;;;;;;;2.22;1.45;;;17.20;70.40;;;;;;6136972;23;20032;-88
2023/08/07 16:54:14;;;;;;;3.05;1.48;;;17.00;63.30;;;;;;6151922;23;20029;-89
2023/08/07 16:57:18;;;;;;;;;;;;;;;;;;;;;
2023/08/07 17:00:31;;;;;;;3.55;2.45;;;16.70;67.10;;;;;;6151581;23;20041;-90
2023/08/07 17:03:36;;;;;;;3.13;1.50;;;16.60;72.40;;;;;;6158863;23;20048;-88
2023/08/07 17:06:31;;;;;;;3.95;1.95;;;16.50;92.70;;;;;;6153216;23;20021;-86
2023/08/07 17:09:47;;;;;;;2.95;1.90;;;16.30;99.30;;;;;;6172158;23;20082;-89
2023/08/07 17:12:55;;;;;;;3.88;2.30;;;16.00;99.90;;;;;;6160957;23;20091;-89
2023/08/07 17:20:14;;;;;;;2.38;1.65;;;15.10;99.90;;;;;;6116583;23;20040;-89
2023/08/07 17:23:34;;;;;;;5.15;2.00;;;15.10;99.90;;;;;;6165085;23;20105;-88
2023/08/07 17:26:31;;;;;;;2.85;2.10;;;15.20;99.90;;;;;;6149890;23;20024;-86
2023/08/07 17:33:15;;;;;;;2.95;1.83;;;15.60;99.90;;;;;;6201511;23;20036;-87
2023/08/07 17:36:46;;;;;;;4.00;1.70;;;15.90;99.90;;;;;;6080467;23;20404;-92
2023/08/07 17:44:10;;;;;;;3.30;1.85;;;16.30;99.90;;;;;;6095402;23;20023;-91
2023/08/07 17:47:12;;;;;;;;;;;;;;;;;;;;;
2023/08/07 17:50:00;;;;;;;1.85;1.50;;;16.40;99.90;;;;;;6063188;23;20023;-88
2023/08/07 17:52:50;;;;;;;2.53;1.60;;;16.30;99.90;;;;;;6099837;23;20300;-90
2023/08/07 17:55:49;;;;;;;3.88;1.60;;;16.20;99.90;;;;;;6133058;23;20081;-88
2023/08/07 17:58:43;;;;;;;3.10;1.60;;;16.10;99.90;;;;;;6150599;23;20424;-89
2023/08/07 18:01:50;;;;;;;3.50;2.20;;;15.90;99.90;;;;;;6151304;23;20037;-92
2023/08/07 18:05:13;;;;;;;3.60;2.25;;;15.70;99.90;;;;;;6142657;23;20029;-87
2023/08/07 18:12:53;;;;;;;3.28;2.13;;;15.50;99.90;;;;;;6079359;23;20022;-90
2023/08/07 18:15:54;;;;;;;2.92;1.88;;;15.30;99.90;;;;;;6118186;23;20509;-90
2023/08/07 18:18:44;;;;;;;3.47;1.90;;;15.20;99.90;;;;;;6225905;22;20020;-86
2023/08/07 18:21:33;;;;;;;2.03;1.40;;;15.20;99.90;;;;;;6202327;23;20052;-84
2023/08/07 18:24:46;;;;;;;4.95;1.80;;;15.10;99.90;;;;;;6227953;22;20083;-88
2023/08/07 18:27:45;;;;;;;4.97;2.10;;;15.00;99.90;;;;;;6204464;23;20076;-86
2023/08/07 18:30:50;;;;;;;3.63;1.83;;;14.90;99.90;;;;;;6146345;23;20032;-88
2023/08/07 18:33:42;;;;;;;5.85;1.98;;;14.80;99.90;;;;;;6155811;23;20138;-86
2023/08/07 18:36:40;;;;;;;4.18;2.17;;;14.70;99.90;;;;;;6129461;23;20367;-90
2023/08/07 18:39:42;;;;;;;3.67;1.70;;;14.60;99.90;;;;;;6151514;23;20030;-87
2023/08/07 18:43:17;;;;;;;3.05;2.10;;;14.50;99.90;;;;;;6150424;23;20217;-88
2023/08/07 18:46:08;;;;;;;2.75;1.85;;;14.40;99.90;;;;;;6123424;23;20033;-88
2023/08/07 18:49:00;;;;;;;2.38;1.70;;;14.40;99.90;;;;;;6147710;23;20010;-87
2023/08/07 18:51:50;;;;;;;3.30;1.90;;;14.20;99.90;;;;;;6173661;23;20049;-87
2023/08/07 18:54:42;;;;;;;5.60;2.35;;;14.10;99.90;;;;;;6145981;23;20026;-89
2023/08/07 18:57:30;;;;;;;3.33;2.28;;;14.10;99.90;;;;;;6151107;23;20067;-90
2023/08/07 19:00:18;;;;;;;3.83;2.15;;;14.10;99.90;;;;;;6136945;23;20141;-89
2023/08/07 19:03:17;;;;;;;6.05;2.08;;;14.00;99.90;;;;;;6167523;23;20009;-84
2023/08/07 19:10:20;;;;;;;6.78;2.25;;;14.00;99.90;;;;;;6192277;23;19992;-89
2023/08/07 19:13:32;;;;;;;4.60;2.60;;;14.10;99.90;;;;;;6212922;23;20026;-90
2023/08/07 19:16:38;;;;;;;4.10;2.03;;;14.10;99.90;;;;;;6150614;23;20100;-91
2023/08/07 19:19:33;;;;;;;4.38;1.95;;;14.00;99.90;;;;;;6133825;23;20467;-91
2023/08/07 19:22:21;;;;;;;2.10;1.70;;;14.00;99.90;;;;;;6137062;23;20104;-91
2023/08/07 19:25:09;;;;;;;4.00;2.53;;;14.00;99.90;;;;;;6141149;23;20030;-91
2023/08/07 19:27:57;;;;;;;4.57;2.00;;;14.10;99.90;;;;;;6115221;23;20309;-89
2023/08/07 19:31:23;;;;;;;3.65;1.90;;;14.00;99.90;;;;;;6121297;23;20029;-90
2023/08/07 19:34:16;;;;;;;3.58;2.05;;;13.90;99.90;;;;;;6173946;23;20026;-85
2023/08/07 19:37:42;;;;;;;6.60;1.90;;;13.80;99.90;;;;;;6152293;23;20013;-90
2023/08/07 19:41:01;;;;;;;3.72;2.10;;;13.80;99.90;;;;;;6145171;23;20044;-89
2023/08/07 19:43:49;;;;;;;2.35;1.85;;;13.80;99.90;;;;;;6163651;23;20388;-88
2023/08/07 19:46:37;;;;;;;6.03;1.90;;;13.70;99.90;;;;;;6161547;23;20080;-86
2023/08/07 19:49:28;;;;;;;3.58;1.98;;;13.60;99.90;;;;;;6170843;23;20380;-88
2023/08/07 19:52:39;;;;;;;4.10;1.85;;;13.60;99.90;;;;;;6166797;23;20045;-87
2023/08/07 19:55:26;;;;;;;2.67;1.80;;;13.50;99.90;;;;;;6165130;23;20025;-90
2023/08/07 19:58:19;;;;;;;2.70;2.00;;;13.50;99.90;;;;;;6163514;23;20025;-89
2023/08/07 20:01:07;;;;;;;;;;;13.40;99.90;;;;;;6157218;23;20062;-91
2023/08/07 20:03:57;;;;;;;3.90;2.13;;;13.30;99.90;;;;;;6155632;23;19925;-91
2023/08/07 20:06:51;;;;;;;6.43;2.28;;;13.20;99.90;;;;;;6160928;23;20037;-90
2023/08/07 20:09:39;;;;;;;3.83;1.73;;;13.20;99.90;;;;;;6116899;23;20434;-90
2023/08/07 20:12:28;;;;;;;4.28;1.75;;;13.10;99.90;;;;;;6137769;23;20025;-90
2023/08/07 20:15:27;;;;;;;3.53;1.90;;;13.00;1.00;;;;;;6151006;23;20026;-91
2023/08/07 20:18:23;;;;;;;2.75;2.10;;;12.90;1.00;;;;;;6136269;23;20040;-92
2023/08/07 20:21:39;;;;;;;3.67;1.63;;;12.80;1.00;;;;;;6136414;23;20030;-92
2023/08/07 20:24:28;;;;;;;5.68;2.67;;;12.80;1.00;;;;;;6136776;23;20108;-93
2023/08/07 20:27:26;;;;;;;3.75;2.42;;;12.80;1.00;;;;;;6133058;23;20110;-92
2023/08/07 20:30:57;;;;;;;3.30;2.25;;;12.80;1.00;;;;;;6134665;23;20090;-92
2023/08/07 20:38:12;;;;;;;3.13;1.98;;;12.70;1.00;;;;;;6162124;23;20013;-88
2023/08/07 20:41:15;;;;;;;2.53;1.88;;;12.70;1.00;;;;;;6146664;23;20084;-89